Time;durP1;ratioP1;P1;durP2;ratioP2;P2;SDS_P1;SDS_P2;PMS_P1;PMS_P2;Temp;Humidity;BMP_temperature;BMP_pressure;BME280_temperature;BME280_humidity;BME280_pressure;Samples;Min_cycle;Max_cycle;Signal;HPM_P1;HPM_P2
2022/12/18 00:02:15;;;;;;;37.90;23.00;;;-8.60;99.90;;;;;;5007852;28;20274;-79
2022/12/18 00:04:40;;;;;;;39.13;24.07;;;-8.60;99.90;;;;;;5009061;28;20219;-78
2022/12/18 00:07:06;;;;;;;39.20;23.43;;;-8.60;99.90;;;;;;5007459;28;20190;-78
2022/12/18 00:09:32;;;;;;;37.47;23.43;;;-8.70;99.90;;;;;;5009412;28;20642;-79
2022/12/18 00:11:57;;;;;;;38.77;23.03;;;-8.60;99.90;;;;;;5008706;28;20191;-79
2022/12/18 00:14:23;;;;;;;39.60;24.30;;;-8.80;1.00;;;;;;5009450;28;20221;-78
2022/12/18 00:16:48;;;;;;;43.30;24.70;;;-8.80;1.00;;;;;;5009123;28;20189;-78
2022/12/18 00:19:15;;;;;;;37.83;23.67;;;-8.80;1.00;;;;;;5006563;28;20274;-79
2022/12/18 00:21:41;;;;;;;38.77;24.30;;;-8.80;1.00;;;;;;5007434;28;20183;-77
2022/12/18 00:24:08;;;;;;;38.67;22.53;;;-8.80;1.00;;;;;;5024001;28;20218;-79
2022/12/18 00:26:34;;;;;;;38.63;23.87;;;-8.40;1.00;;;;;;5007579;28;20334;-77
2022/12/18 00:29:06;;;;;;;39.20;22.87;;;-8.80;1.00;;;;;;5009219;28;20187;-78
2022/12/18 00:31:32;;;;;;;39.43;24.33;;;-8.70;1.00;;;;;;5008808;28;20172;-79
2022/12/18 00:33:58;;;;;;;41.40;24.23;;;-8.60;1.00;;;;;;5009025;28;20338;-77
2022/12/18 00:36:27;;;;;;;41.17;24.23;;;-8.60;1.00;;;;;;5008879;28;20188;-77
2022/12/18 00:38:54;;;;;;;41.10;24.70;;;-8.60;1.00;;;;;;5012526;28;20632;-78
2022/12/18 00:44:07;;;;;;;38.60;22.70;;;-8.80;1.00;;;;;;5008463;28;20226;-78
2022/12/18 00:46:33;;;;;;;42.57;24.13;;;-8.90;1.00;;;;;;5008144;28;20228;-77
2022/12/18 00:48:58;;;;;;;41.57;23.93;;;-8.90;1.00;;;;;;5008703;28;20179;-77
2022/12/18 00:51:24;;;;;;;39.07;22.67;;;-8.90;1.00;;;;;;5006925;28;20692;-79
2022/12/18 00:53:50;;;;;;;39.73;22.80;;;-9.00;1.00;;;;;;5006841;28;20836;-79
2022/12/18 00:56:16;;;;;;;40.50;24.10;;;-8.90;1.00;;;;;;5007940;28;20203;-79
2022/12/18 00:58:41;;;;;;;40.23;23.50;;;-8.80;62.40;;;;;;5008678;28;20180;-78
2022/12/18 01:01:08;;;;;;;44.07;24.67;;;-8.70;72.40;;;;;;5006651;28;20187;-79
2022/12/18 01:03:33;;;;;;;41.47;23.67;;;-8.70;14.60;;;;;;5007044;28;20206;-78
2022/12/18 01:05:59;;;;;;;42.50;24.10;;;-8.60;96.30;;;;;;5007807;28;20188;-79
2022/12/18 01:08:25;;;;;;;36.90;22.80;;;-8.60;27.10;;;;;;5008367;28;20200;-77
2022/12/18 01:10:51;;;;;;;41.53;25.30;;;-8.50;99.90;;;;;;5007416;28;20270;-78
2022/12/18 01:13:16;;;;;;;42.13;24.57;;;-8.40;95.20;;;;;;5008142;28;20254;-79
2022/12/18 01:15:49;;;;;;;43.63;25.03;;;-8.60;1.00;;;;;;5007537;28;20242;-78
2022/12/18 01:18:14;;;;;;;41.80;23.60;;;-8.70;1.00;;;;;;5006422;28;20645;-79
2022/12/18 01:20:40;;;;;;;39.13;23.37;;;-8.80;1.00;;;;;;5005998;28;20211;-77
2022/12/18 01:23:06;;;;;;;42.37;24.20;;;-8.90;1.00;;;;;;5008079;28;20207;-78
2022/12/18 01:25:31;;;;;;;44.83;26.20;;;-8.90;1.00;;;;;;5006276;28;20216;-79
2022/12/18 01:27:57;;;;;;;42.87;24.37;;;-9.00;1.00;;;;;;5007701;28;20677;-79
2022/12/18 01:30:23;;;;;;;42.37;24.30;;;-9.10;1.00;;;;;;5006242;28;20207;-78
2022/12/18 01:32:48;;;;;;;40.63;22.60;;;-9.10;1.00;;;;;;5007165;28;20763;-78
2022/12/18 01:35:14;;;;;;;43.00;23.07;;;-9.10;1.00;;;;;;5007536;28;20198;-79
2022/12/18 01:37:40;;;;;;;36.63;22.50;;;-9.00;1.00;;;;;;5007574;28;20544;-78
2022/12/18 01:40:06;;;;;;;37.97;22.70;;;-9.10;1.00;;;;;;5008009;28;20874;-77
2022/12/18 01:42:32;;;;;;;39.07;21.77;;;-9.10;1.00;;;;;;5006138;28;20218;-79
2022/12/18 01:45:16;;;;;;;38.20;21.63;;;-9.10;1.00;;;;;;5007727;28;20203;-78
2022/12/18 01:47:51;;;;;;;36.60;21.60;;;-8.90;1.00;;;;;;5007151;28;20183;-79
2022/12/18 01:50:28;;;;;;;40.60;22.60;;;-8.70;99.90;;;;;;5006410;28;20272;-75
2022/12/18 01:53:10;;;;;;;37.37;22.20;;;-8.00;1.00;;;;;;5007597;28;20214;-78
2022/12/18 01:55:44;;;;;;;40.97;22.57;;;-8.70;1.00;;;;;;5006732;28;20221;-78
2022/12/18 01:58:10;;;;;;;39.50;23.00;;;-8.80;1.00;;;;;;5006266;28;20194;-80
2022/12/18 02:00:35;;;;;;;37.53;22.30;;;-8.90;1.00;;;;;;5007034;28;20187;-78
2022/12/18 02:03:01;;;;;;;37.37;21.10;;;-9.00;1.00;;;;;;5006872;28;20215;-78
2022/12/18 02:05:49;;;;;;;40.40;22.30;;;-9.10;1.00;;;;;;5005744;28;20254;-79
2022/12/18 02:08:42;;;;;;;40.60;23.27;;;-9.20;1.00;;;;;;5007968;28;20314;-78
2022/12/18 02:11:37;;;;;;;37.23;21.90;;;-9.20;1.00;;;;;;5006737;28;20175;-79
2022/12/18 02:14:24;;;;;;;37.87;20.70;;;-9.30;1.00;;;;;;5006792;28;20207;-78
2022/12/18 02:17:25;;;;;;;34.53;20.60;;;-9.30;1.00;;;;;;5005515;28;20461;-79
2022/12/18 02:20:00;;;;;;;40.57;21.87;;;-9.20;1.00;;;;;;4992754;28;20202;-77
2022/12/18 02:22:49;;;;;;;35.80;21.13;;;-9.00;1.00;;;;;;5006778;28;20688;-78
2022/12/18 02:25:29;;;;;;;37.83;21.10;;;-9.00;1.00;;;;;;5005498;28;20214;-78
2022/12/18 02:27:57;;;;;;;37.63;21.43;;;-9.10;1.00;;;;;;5006953;28;20349;-78
2022/12/18 02:30:24;;;;;;;35.53;20.50;;;-9.20;1.00;;;;;;5005596;28;20184;-78
2022/12/18 02:32:52;;;;;;;36.83;21.03;;;-9.10;1.00;;;;;;5006360;28;20207;-78
2022/12/18 02:35:24;;;;;;;35.33;20.00;;;-9.00;1.00;;;;;;5005280;28;20203;-77
2022/12/18 02:37:51;;;;;;;37.43;21.90;;;-9.00;1.00;;;;;;5005036;28;20179;-79
2022/12/18 02:40:18;;;;;;;33.03;20.77;;;-9.00;1.00;;;;;;5021965;28;20211;-79
2022/12/18 02:42:44;;;;;;;33.80;20.20;;;-9.10;1.00;;;;;;5007980;28;20203;-79
2022/12/18 02:45:10;;;;;;;35.93;20.50;;;-9.00;1.00;;;;;;5009350;28;21041;-78
2022/12/18 02:47:43;;;;;;;35.03;19.47;;;-9.10;1.00;;;;;;5009072;28;20293;-78
2022/12/18 02:50:44;;;;;;;34.87;20.47;;;-9.10;1.00;;;;;;5010509;28;20202;-77
2022/12/18 02:53:19;;;;;;;34.20;20.57;;;-9.10;1.00;;;;;;5010505;28;20267;-78
2022/12/18 02:56:20;;;;;;;34.53;18.60;;;-9.10;99.90;;;;;;5010507;28;20182;-78
2022/12/18 02:59:02;;;;;;;31.60;18.27;;;-9.10;99.90;;;;;;5010629;28;20199;-78
2022/12/18 03:01:37;;;;;;;34.53;19.63;;;-9.20;99.90;;;;;;5008868;28;20727;-78
2022/12/18 03:04:12;;;;;;;36.53;20.60;;;-9.30;99.90;;;;;;5009258;28;20241;-78
2022/12/18 03:06:42;;;;;;;35.43;20.13;;;-9.30;99.90;;;;;;5009609;28;20183;-77
2022/12/18 03:09:18;;;;;;;41.92;29.95;;;-9.30;99.90;;;;;;5009128;28;20742;-78
2022/12/18 03:14:37;;;;;;;35.53;21.73;;;-9.40;99.90;;;;;;5010432;28;20225;-78
2022/12/18 03:17:08;;;;;;;37.07;21.00;;;-9.30;1.00;;;;;;5009142;28;20187;-78
2022/12/18 03:19:34;;;;;;;40.00;21.93;;;-9.10;1.00;;;;;;5009091;28;20179;-78
2022/12/18 03:22:03;;;;;;;33.70;20.93;;;-9.20;1.00;;;;;;5010714;28;20172;-77
2022/12/18 03:24:31;;;;;;;33.77;20.40;;;-9.20;1.00;;;;;;5011314;28;20262;-77
2022/12/18 03:27:02;;;;;;;35.50;19.90;;;-9.10;1.00;;;;;;5009273;28;20179;-78
2022/12/18 03:29:35;;;;;;;34.60;20.23;;;-9.10;99.90;;;;;;5009393;28;20187;-78
2022/12/18 03:32:07;;;;;;;32.40;19.87;;;-9.20;99.90;;;;;;5009479;28;20171;-78
2022/12/18 03:34:36;;;;;;;34.70;20.37;;;-9.10;99.90;;;;;;5009208;28;20562;-77
2022/12/18 03:37:03;;;;;;;32.03;19.77;;;-9.10;99.90;;;;;;5007547;28;20186;-77
2022/12/18 03:39:28;;;;;;;32.70;20.13;;;-9.10;99.90;;;;;;5008738;28;20625;-78
2022/12/18 03:42:12;;;;;;;33.97;19.83;;;-9.20;99.90;;;;;;5008674;28;20266;-79
2022/12/18 03:45:25;;;;;;;32.17;19.33;;;-9.30;99.90;;;;;;5009948;28;20290;-78
2022/12/18 03:48:05;;;;;;;35.97;20.77;;;-9.30;99.90;;;;;;4994578;28;20197;-78
2022/12/18 03:50:45;;;;;;;34.27;19.33;;;-9.50;99.90;;;;;;5010018;28;20653;-78
2022/12/18 03:53:24;;;;;;;34.80;19.73;;;-9.40;99.90;;;;;;5009520;28;20206;-78
2022/12/18 03:55:51;;;;;;;30.07;17.70;;;-9.40;99.90;;;;;;5008888;28;20171;-79
2022/12/18 03:58:22;;;;;;;33.80;20.70;;;-9.30;99.90;;;;;;5009915;28;20194;-78
2022/12/18 04:00:52;;;;;;;35.73;19.80;;;-9.20;99.90;;;;;;5009054;28;20601;-79
2022/12/18 04:03:19;;;;;;;36.47;20.60;;;-9.30;99.90;;;;;;5009252;28;20247;-78
2022/12/18 04:05:46;;;;;;;38.37;21.70;;;-9.20;99.90;;;;;;5009157;28;20271;-79
2022/12/18 04:08:13;;;;;;;36.00;21.07;;;-9.40;99.90;;;;;;5009308;28;20202;-78
2022/12/18 04:10:38;;;;;;;40.23;20.57;;;-9.50;99.90;;;;;;5009186;28;20183;-78
2022/12/18 04:13:04;;;;;;;36.23;20.47;;;-9.40;99.90;;;;;;5009382;28;20198;-78
2022/12/18 04:15:34;;;;;;;36.43;21.53;;;-9.40;99.90;;;;;;5006775;28;20202;-80
2022/12/18 04:17:59;;;;;;;36.10;20.43;;;-9.50;99.90;;;;;;5023958;28;20191;-79
2022/12/18 04:20:25;;;;;;;39.27;22.03;;;-9.60;99.90;;;;;;5009382;28;20202;-79
2022/12/18 04:22:51;;;;;;;37.93;20.50;;;-9.60;99.90;;;;;;5008950;28;20210;-78
2022/12/18 04:25:16;;;;;;;38.20;20.87;;;-9.40;99.90;;;;;;5008974;28;20207;-77
2022/12/18 04:27:42;;;;;;;37.17;20.17;;;-9.30;99.90;;;;;;5008950;28;20196;-78
2022/12/18 04:30:08;;;;;;;35.70;20.70;;;-9.30;99.90;;;;;;5008948;28;20176;-79
2022/12/18 04:32:34;;;;;;;40.67;21.67;;;-9.30;99.90;;;;;;5007658;28;20196;-79
2022/12/18 04:35:00;;;;;;;37.33;21.63;;;-9.30;99.90;;;;;;5008488;28;20277;-79
2022/12/18 04:37:25;;;;;;;39.80;21.33;;;-9.40;99.90;;;;;;5008826;28;20257;-78
2022/12/18 04:39:51;;;;;;;41.97;21.83;;;-9.30;99.90;;;;;;5009182;28;20183;-78
2022/12/18 04:42:17;;;;;;;43.53;22.70;;;-9.20;99.90;;;;;;5008909;28;20198;-78
2022/12/18 04:44:42;;;;;;;41.33;21.77;;;-9.10;99.90;;;;;;5008691;28;20218;-78
2022/12/18 04:47:08;;;;;;;36.70;20.07;;;-9.20;99.90;;;;;;5008587;28;20209;-78
2022/12/18 04:49:33;;;;;;;38.57;21.83;;;-9.10;99.90;;;;;;5007577;28;21161;-79
2022/12/18 04:51:59;;;;;;;39.03;22.17;;;-9.30;99.90;;;;;;5007150;28;20184;-78
2022/12/18 04:54:25;;;;;;;35.57;20.97;;;-9.30;99.90;;;;;;5008411;28;20211;-78
2022/12/18 04:56:51;;;;;;;38.80;21.73;;;-9.40;99.90;;;;;;5006424;28;20203;-78
2022/12/18 04:59:16;;;;;;;40.67;21.47;;;-9.60;99.90;;;;;;5008600;28;20222;-78
2022/12/18 05:01:42;;;;;;;40.87;21.47;;;-9.60;99.90;;;;;;5007231;28;20194;-78
2022/12/18 05:04:07;;;;;;;36.10;20.33;;;-9.70;99.90;;;;;;5007222;28;20233;-78
2022/12/18 05:06:33;;;;;;;35.83;19.63;;;-9.80;99.90;;;;;;5007585;28;20557;-78
2022/12/18 05:08:59;;;;;;;33.60;20.10;;;-9.80;99.90;;;;;;5008977;28;20728;-78
2022/12/18 05:11:24;;;;;;;41.53;20.83;;;-9.80;99.90;;;;;;5007888;28;20270;-77
2022/12/18 05:13:50;;;;;;;39.63;20.13;;;-9.80;99.90;;;;;;5008332;28;20322;-78
2022/12/18 05:16:15;;;;;;;42.33;21.43;;;-9.70;99.90;;;;;;5006137;28;20222;-78
2022/12/18 05:18:41;;;;;;;39.53;20.67;;;-9.70;1.00;;;;;;5008380;28;20175;-78
2022/12/18 05:21:07;;;;;;;38.23;21.13;;;-9.60;1.00;;;;;;5006466;28;20183;-78
2022/12/18 05:23:33;;;;;;;38.30;21.13;;;-9.60;1.00;;;;;;5006825;28;20767;-77
2022/12/18 05:26:04;;;;;;;39.43;20.77;;;-9.60;1.00;;;;;;5007402;28;20226;-77
2022/12/18 05:28:32;;;;;;;38.87;19.90;;;-9.50;1.00;;;;;;5006533;28;20397;-79
2022/12/18 05:31:00;;;;;;;36.93;19.67;;;-9.80;1.00;;;;;;5007699;28;20557;-78
2022/12/18 05:33:28;;;;;;;36.07;20.43;;;-9.90;1.00;;;;;;5007837;28;20212;-79
2022/12/18 05:35:55;;;;;;;33.10;18.50;;;-10.00;99.90;;;;;;5006595;28;20660;-78
2022/12/18 05:38:22;;;;;;;37.67;21.17;;;-10.10;99.90;;;;;;5007787;28;20561;-78
2022/12/18 05:40:49;;;;;;;38.37;19.93;;;-9.90;99.90;;;;;;5006172;28;20278;-78
2022/12/18 05:43:15;;;;;;;35.27;19.40;;;-9.80;99.90;;;;;;5007807;28;20258;-78
2022/12/18 05:45:42;;;;;;;35.80;18.90;;;-9.70;99.90;;;;;;5005910;28;20688;-77
2022/12/18 05:48:08;;;;;;;36.40;20.27;;;-9.70;99.90;;;;;;5007338;28;20194;-78
2022/12/18 05:50:35;;;;;;;36.17;18.50;;;-9.70;99.90;;;;;;5006048;28;20325;-78
2022/12/18 05:53:02;;;;;;;35.83;19.30;;;-9.60;99.90;;;;;;5007983;28;20653;-78
2022/12/18 05:55:28;;;;;;;35.10;19.67;;;-9.00;99.90;;;;;;5007630;28;20244;-79
2022/12/18 05:57:53;;;;;;;35.43;18.80;;;-9.80;99.90;;;;;;5007603;28;20262;-78
2022/12/18 06:00:19;;;;;;;35.73;18.33;;;-9.90;99.90;;;;;;5008081;28;20350;-79
2022/12/18 06:02:48;;;;;;;36.83;18.53;;;-10.00;99.90;;;;;;5008228;28;20691;-78
2022/12/18 06:05:14;;;;;;;34.70;18.47;;;-9.80;99.90;;;;;;5006014;28;20205;-78
2022/12/18 06:07:40;;;;;;;38.60;20.03;;;-9.70;1.00;;;;;;5006800;28;20189;-78
2022/12/18 06:10:06;;;;;;;34.50;18.53;;;-9.90;1.00;;;;;;5006674;28;20190;-77
2022/12/18 06:12:33;;;;;;;33.37;19.37;;;-9.90;1.00;;;;;;5006316;28;20290;-78
2022/12/18 06:14:59;;;;;;;33.37;18.17;;;-9.80;1.00;;;;;;5007534;28;20198;-78
2022/12/18 06:17:29;;;;;;;36.40;18.93;;;-9.80;1.00;;;;;;5008551;28;20191;-78
2022/12/18 06:19:55;;;;;;;34.90;19.80;;;-9.80;1.00;;;;;;5009188;28;20710;-78
2022/12/18 06:22:20;;;;;;;35.83;20.13;;;-9.80;1.00;;;;;;5010190;28;20261;-78
2022/12/18 06:24:46;;;;;;;33.47;17.20;;;-9.70;1.00;;;;;;5010060;28;20790;-78
2022/12/18 06:27:11;;;;;;;35.60;18.27;;;-9.80;1.00;;;;;;5010685;28;20285;-79
2022/12/18 06:29:37;;;;;;;40.10;19.40;;;-9.20;1.00;;;;;;5011537;28;20241;-77
2022/12/18 06:32:03;;;;;;;37.77;19.53;;;-9.70;1.00;;;;;;5009422;28;20183;-79
2022/12/18 06:34:28;;;;;;;41.20;19.87;;;-9.80;1.00;;;;;;5011567;28;20213;-78
2022/12/18 06:36:54;;;;;;;37.27;18.73;;;-9.80;1.00;;;;;;5010379;28;20180;-78
2022/12/18 06:39:20;;;;;;;37.43;18.07;;;-9.80;1.00;;;;;;5010507;28;20184;-78
2022/12/18 06:41:45;;;;;;;36.43;19.70;;;-9.70;1.00;;;;;;5010595;28;20198;-78
2022/12/18 06:44:11;;;;;;;38.77;19.27;;;-9.70;1.00;;;;;;5011391;28;20242;-78
2022/12/18 06:46:37;;;;;;;36.77;19.27;;;-9.70;1.00;;;;;;5010771;28;20176;-78
2022/12/18 06:49:03;;;;;;;42.30;19.73;;;-9.60;1.00;;;;;;5011477;28;20164;-78
2022/12/18 06:51:29;;;;;;;34.70;18.20;;;-9.70;1.00;;;;;;5008826;28;20194;-78
2022/12/18 06:53:55;;;;;;;38.63;18.93;;;-9.70;1.00;;;;;;5011496;28;20290;-77
2022/12/18 06:56:20;;;;;;;37.07;19.87;;;-9.80;1.00;;;;;;5010612;28;20218;-78
2022/12/18 06:58:46;;;;;;;35.97;19.30;;;-9.90;1.00;;;;;;5011308;28;20246;-79
2022/12/18 07:01:13;;;;;;;38.87;19.83;;;-10.00;99.90;;;;;;5009804;28;20189;-78
2022/12/18 07:03:40;;;;;;;40.50;20.17;;;-9.80;99.90;;;;;;5010797;28;20211;-78
2022/12/18 07:06:12;;;;;;;35.30;19.00;;;-9.70;99.90;;;;;;5010282;28;20188;-78
2022/12/18 07:08:37;;;;;;;43.87;20.37;;;-9.70;99.90;;;;;;5011327;28;20188;-78
2022/12/18 07:11:04;;;;;;;42.53;18.80;;;-9.90;99.90;;;;;;5009363;28;20323;-79
2022/12/18 07:13:30;;;;;;;35.87;18.37;;;-9.80;99.90;;;;;;5008693;28;20273;-78
2022/12/18 07:16:02;;;;;;;35.33;18.27;;;-9.90;99.90;;;;;;5008982;28;20682;-78
2022/12/18 07:18:27;;;;;;;34.17;19.13;;;-10.00;99.90;;;;;;5009893;28;20236;-78
2022/12/18 07:20:53;;;;;;;35.20;17.97;;;-9.80;99.90;;;;;;5009421;28;20262;-78
2022/12/18 07:23:19;;;;;;;39.63;18.20;;;-9.60;99.90;;;;;;5008286;28;20212;-78
2022/12/18 07:25:44;;;;;;;37.20;17.33;;;-9.60;99.90;;;;;;5008389;28;20272;-78
2022/12/18 07:28:10;;;;;;;38.80;19.17;;;-9.70;99.90;;;;;;5007926;28;20202;-78
2022/12/18 07:30:38;;;;;;;39.40;18.97;;;-9.70;99.90;;;;;;5008858;28;21133;-78
2022/12/18 07:33:03;;;;;;;36.47;19.17;;;-9.70;99.90;;;;;;5007342;28;20666;-78
2022/12/18 07:35:29;;;;;;;33.73;18.37;;;-9.80;99.90;;;;;;5008601;28;20197;-78
2022/12/18 07:37:54;;;;;;;38.73;20.50;;;-9.90;99.90;;;;;;5007170;28;20648;-78
2022/12/18 07:40:20;;;;;;;38.07;18.97;;;-9.90;99.90;;;;;;5006982;28;20199;-78
2022/12/18 07:42:46;;;;;;;41.30;18.87;;;-10.00;99.90;;;;;;5008311;28;20265;-78
2022/12/18 07:45:11;;;;;;;36.53;17.47;;;-9.90;99.90;;;;;;5008597;28;20214;-78
2022/12/18 07:47:37;;;;;;;37.17;19.03;;;-9.90;99.90;;;;;;5008554;28;20238;-78
2022/12/18 07:50:04;;;;;;;35.47;18.70;;;-10.00;99.90;;;;;;5007092;28;20245;-78
2022/12/18 07:52:30;;;;;;;34.13;19.10;;;-10.00;99.90;;;;;;5007924;28;20612;-78
2022/12/18 07:54:55;;;;;;;36.87;19.57;;;-10.00;99.90;;;;;;5007044;28;20202;-78
2022/12/18 07:57:21;;;;;;;34.17;18.33;;;-10.00;99.90;;;;;;5006270;28;20393;-78
2022/12/18 07:59:46;;;;;;;39.43;19.30;;;-10.00;99.90;;;;;;5005812;28;20227;-78
2022/12/18 08:02:12;;;;;;;37.50;18.53;;;-9.90;99.90;;;;;;5008659;28;20205;-78
2022/12/18 08:04:38;;;;;;;36.60;19.70;;;-9.70;99.90;;;;;;5008618;28;20747;-77
2022/12/18 08:07:03;;;;;;;34.50;17.97;;;-9.60;99.90;;;;;;5006141;28;20287;-78
2022/12/18 08:09:29;;;;;;;39.20;18.90;;;-9.80;99.90;;;;;;5007014;28;20184;-78
2022/12/18 08:11:54;;;;;;;32.93;18.17;;;-9.60;99.90;;;;;;5007212;28;20184;-78
2022/12/18 08:14:20;;;;;;;31.25;18.98;;;-9.70;99.90;;;;;;4969568;28;1084375;-78
2022/12/18 08:16:45;;;;;;;38.03;19.07;;;-9.60;99.90;;;;;;5008643;28;20186;-78
2022/12/18 08:19:11;;;;;;;38.33;19.97;;;-9.90;99.90;;;;;;5007830;28;20183;-78
2022/12/18 08:21:37;;;;;;;41.00;20.20;;;-9.80;99.90;;;;;;5009085;28;20182;-78
2022/12/18 08:24:03;;;;;;;35.20;20.27;;;-9.70;99.90;;;;;;5009394;28;20222;-77
2022/12/18 08:26:30;;;;;;;36.83;19.50;;;-9.70;99.90;;;;;;5008166;28;20621;-78
2022/12/18 08:28:58;;;;;;;49.90;26.27;;;-9.70;99.90;;;;;;5009113;28;20186;-77
2022/12/18 08:31:24;;;;;;;43.80;21.27;;;-9.60;99.90;;;;;;5007565;28;20190;-78
2022/12/18 08:33:52;;;;;;;43.43;20.07;;;-9.60;99.90;;;;;;5009149;28;20207;-78
2022/12/18 08:36:19;;;;;;;38.33;18.97;;;-9.50;99.90;;;;;;5008411;28;20181;-78
2022/12/18 08:38:44;;;;;;;37.80;19.40;;;-9.40;99.90;;;;;;5007523;28;20183;-78
2022/12/18 08:41:12;;;;;;;36.23;19.53;;;-9.40;99.90;;;;;;5006322;28;20181;-78
2022/12/18 08:46:25;;;;;;;40.47;21.93;;;-9.20;99.90;;;;;;5007865;28;20270;-78
2022/12/18 08:48:51;;;;;;;39.50;21.13;;;-9.20;99.90;;;;;;5008429;28;20282;-78
2022/12/18 08:51:18;;;;;;;47.30;24.57;;;-9.10;99.90;;;;;;5007994;28;20191;-78
2022/12/18 08:53:44;;;;;;;44.47;25.23;;;-9.00;99.90;;;;;;5007442;28;20538;-78
2022/12/18 08:56:11;;;;;;;65.10;37.67;;;-8.80;99.90;;;;;;5006236;28;20282;-78
2022/12/18 08:58:36;;;;;;;47.90;27.93;;;-8.70;99.90;;;;;;5006873;28;21053;-78
2022/12/18 09:01:04;;;;;;;41.50;23.57;;;-8.60;99.90;;;;;;5005765;28;20201;-78
2022/12/18 09:03:30;;;;;;;39.67;20.90;;;-7.70;99.90;;;;;;5007682;28;20210;-78
2022/12/18 09:05:56;;;;;;;37.57;21.13;;;-8.50;99.90;;;;;;5006961;28;20215;-77
2022/12/18 09:08:21;;;;;;;39.67;20.87;;;-8.30;99.90;;;;;;5006937;28;20290;-78
2022/12/18 09:10:49;;;;;;;38.17;19.33;;;-8.40;99.90;;;;;;5006554;28;20210;-78
2022/12/18 09:13:16;;;;;;;42.97;23.73;;;-8.40;99.90;;;;;;5008421;28;20203;-77
2022/12/18 09:15:47;;;;;;;42.13;23.77;;;-8.30;99.90;;;;;;5005141;28;20199;-78
2022/12/18 09:18:14;;;;;;;36.47;22.03;;;-8.30;99.90;;;;;;5007525;28;20187;-79
2022/12/18 09:20:40;;;;;;;39.07;20.93;;;-8.30;99.90;;;;;;5006501;28;20211;-78
2022/12/18 09:23:06;;;;;;;50.67;28.63;;;-8.10;99.90;;;;;;5006348;28;20234;-78
2022/12/18 09:25:35;;;;;;;39.80;22.17;;;-8.10;99.90;;;;;;5007121;28;20207;-78
2022/12/18 09:28:05;;;;;;;52.33;29.73;;;-8.00;99.90;;;;;;5007087;28;20194;-77
2022/12/18 09:30:33;;;;;;;65.53;34.80;;;-7.90;99.90;;;;;;5007325;28;20650;-78
2022/12/18 09:32:59;;;;;;;52.87;28.07;;;-7.80;1.00;;;;;;5003715;28;20207;-78
2022/12/18 09:35:24;;;;;;;116.27;63.97;;;-7.70;1.00;;;;;;5006398;28;20254;-78
2022/12/18 09:37:50;;;;;;;60.07;35.53;;;-7.60;1.00;;;;;;5005599;28;20183;-79
2022/12/18 09:40:20;;;;;;;43.40;26.30;;;-7.40;1.00;;;;;;5006374;28;20772;-78
2022/12/18 09:42:55;;;;;;;44.20;24.90;;;-7.30;1.00;;;;;;5005982;28;20294;-78
2022/12/18 09:45:22;;;;;;;42.80;23.10;;;-7.20;99.90;;;;;;5004530;28;20226;-78
2022/12/18 09:47:50;;;;;;;52.07;28.70;;;-7.10;99.90;;;;;;5005827;28;20180;-77
2022/12/18 09:50:25;;;;;;;44.93;25.30;;;-7.00;1.00;;;;;;5005748;28;20183;-77
2022/12/18 09:52:54;;;;;;;40.50;23.27;;;-6.90;99.90;;;;;;5004438;28;20555;-76
2022/12/18 09:55:38;;;;;;;38.30;21.17;;;-6.90;99.90;;;;;;5005142;28;20203;-77
2022/12/18 09:58:28;;;;;;;49.13;29.33;;;-6.80;99.90;;;;;;5005740;28;20184;-78
2022/12/18 10:00:54;;;;;;;39.20;21.90;;;-5.90;99.90;;;;;;5002676;28;20214;-78
2022/12/18 10:03:20;;;;;;;46.97;26.17;;;-6.80;99.90;;;;;;5005115;28;20972;-77
2022/12/18 10:06:05;;;;;;;37.27;21.67;;;-6.70;99.90;;;;;;5005074;28;20222;-78
2022/12/18 10:08:40;;;;;;;35.53;20.47;;;-6.60;99.90;;;;;;5005799;28;20353;-77
2022/12/18 10:11:25;;;;;;;39.03;21.60;;;-6.70;99.90;;;;;;5004908;28;20179;-78
2022/12/18 10:14:29;;;;;;;41.93;22.67;;;-6.50;99.90;;;;;;5005383;28;20601;-75
2022/12/18 10:17:02;;;;;;;40.83;21.63;;;-6.20;99.90;;;;;;5004812;28;20687;-77
2022/12/18 10:19:49;;;;;;;42.77;22.93;;;-6.00;1.00;;;;;;5003702;28;20183;-78
2022/12/18 10:22:50;;;;;;;36.40;21.30;;;-6.00;99.90;;;;;;5004653;28;20187;-78
2022/12/18 10:25:31;;;;;;;34.60;18.77;;;-5.90;1.00;;;;;;4996114;28;20223;-77
2022/12/18 10:28:04;;;;;;;34.07;19.33;;;-5.60;1.00;;;;;;5006205;28;20191;-78
2022/12/18 10:30:30;;;;;;;30.30;17.70;;;-5.50;99.90;;;;;;5005905;28;21033;-77
2022/12/18 10:33:01;;;;;;;32.73;18.87;;;-5.50;99.90;;;;;;5006352;28;20245;-77
2022/12/18 10:35:27;;;;;;;42.30;24.33;;;-5.40;99.90;;;;;;5004778;28;20192;-78
2022/12/18 10:38:13;;;;;;;50.63;26.80;;;-5.40;99.90;;;;;;5004176;28;20238;-78
2022/12/18 10:41:02;;;;;;;37.20;20.97;;;-5.30;99.90;;;;;;5006391;28;20269;-78
2022/12/18 10:43:30;;;;;;;62.27;32.47;;;-5.30;99.90;;;;;;5007101;28;20232;-78
2022/12/18 10:46:14;;;;;;;45.50;23.43;;;-5.20;99.90;;;;;;5005319;28;20286;-78
2022/12/18 10:48:56;;;;;;;50.70;26.93;;;-5.20;99.90;;;;;;5005481;28;20187;-78
2022/12/18 10:51:23;;;;;;;58.20;33.00;;;-5.10;99.90;;;;;;5003514;28;20243;-76
2022/12/18 10:53:59;;;;;;;102.87;43.73;;;-5.00;99.90;;;;;;5004897;28;20262;-78
2022/12/18 10:56:28;;;;;;;35.30;21.87;;;-5.00;99.90;;;;;;5006074;28;20207;-78
2022/12/18 10:58:58;;;;;;;38.93;23.17;;;-5.00;99.90;;;;;;5006807;28;20183;-88
2022/12/18 11:01:24;;;;;;;86.50;43.80;;;-4.90;99.90;;;;;;5003163;28;20180;-80
2022/12/18 11:03:49;;;;;;;69.63;36.80;;;-4.80;99.90;;;;;;5008248;28;20214;-80
2022/12/18 11:06:18;;;;;;;54.20;33.00;;;-4.70;99.90;;;;;;5009491;28;20194;-79
2022/12/18 11:08:57;;;;;;;74.53;41.67;;;-4.70;99.90;;;;;;5011410;28;20183;-81
2022/12/18 11:11:24;;;;;;;55.07;30.07;;;-4.50;99.90;;;;;;5010676;28;20172;-80
2022/12/18 11:14:18;;;;;;;40.77;25.13;;;-4.30;99.90;;;;;;5010194;28;20203;-80
2022/12/18 11:16:47;;;;;;;60.07;35.23;;;-4.30;99.90;;;;;;5009590;28;20314;-79
2022/12/18 11:19:32;;;;;;;55.03;31.23;;;-4.20;99.90;;;;;;5010165;28;20642;-80
2022/12/18 11:21:58;;;;;;;57.43;34.27;;;-4.10;99.90;;;;;;5009142;28;20175;-78
2022/12/18 11:24:28;;;;;;;47.07;28.37;;;-4.00;99.90;;;;;;5008378;28;20214;-79
2022/12/18 11:26:54;;;;;;;48.20;28.37;;;-3.90;99.90;;;;;;5006988;28;20179;-80
2022/12/18 11:29:29;;;;;;;93.27;53.03;;;-4.10;99.90;;;;;;5005602;28;20263;-78
2022/12/18 11:32:32;;;;;;;68.10;41.13;;;-4.00;99.90;;;;;;5004896;28;20633;-79
2022/12/18 11:35:07;;;;;;;32.50;19.87;;;-3.90;99.90;;;;;;5005349;28;20179;-79
2022/12/18 11:37:34;;;;;;;36.33;23.10;;;-4.00;99.90;;;;;;5006985;28;20337;-80
2022/12/18 11:40:13;;;;;;;35.30;22.00;;;-4.00;99.90;;;;;;5009046;28;20542;-79
2022/12/18 11:42:48;;;;;;;29.70;19.07;;;-3.90;99.90;;;;;;5008802;28;20222;-79
2022/12/18 11:45:13;;;;;;;52.57;30.30;;;-3.90;99.90;;;;;;5008855;28;20353;-80
2022/12/18 11:47:57;;;;;;;36.27;22.90;;;-3.90;99.90;;;;;;5008016;28;20620;-82
2022/12/18 11:50:31;;;;;;;33.20;22.13;;;-3.90;99.90;;;;;;5009884;28;20179;-79
2022/12/18 11:52:57;;;;;;;24.00;15.67;;;-3.80;99.90;;;;;;5009497;28;20203;-80
2022/12/18 11:55:33;;;;;;;30.67;20.63;;;-3.70;99.90;;;;;;5009156;28;20547;-81
2022/12/18 11:58:14;;;;;;;25.50;16.93;;;-3.70;99.90;;;;;;5010173;28;20531;-82
2022/12/18 12:00:49;;;;;;;22.53;15.27;;;-3.70;99.90;;;;;;5007709;28;20187;-81
2022/12/18 12:03:27;;;;;;;25.80;16.60;;;-3.70;99.90;;;;;;5008293;28;20213;-78
2022/12/18 12:06:10;;;;;;;23.20;16.00;;;-3.70;99.90;;;;;;5008394;28;21010;-77
2022/12/18 12:08:42;;;;;;;35.40;23.43;;;-3.60;99.90;;;;;;5011128;28;20180;-80
2022/12/18 12:11:34;;;;;;;30.73;23.57;;;-3.50;99.90;;;;;;5008416;28;20613;-79
2022/12/18 12:14:27;;;;;;;23.47;16.83;;;-3.30;99.90;;;;;;5004108;28;20685;-79
2022/12/18 12:17:12;;;;;;;36.97;29.00;;;-3.10;99.90;;;;;;5006252;28;20203;-79
2022/12/18 12:19:52;;;;;;;43.93;29.37;;;-3.00;99.90;;;;;;5008982;28;20180;-79
2022/12/18 12:22:38;;;;;;;21.20;14.67;;;-2.90;99.90;;;;;;5008894;28;20182;-79
2022/12/18 12:25:10;;;;;;;22.37;13.67;;;-2.90;99.90;;;;;;5008678;28;20290;-79
2022/12/18 12:27:57;;;;;;;20.37;13.60;;;-2.90;99.90;;;;;;5008202;28;20183;-78
2022/12/18 12:30:45;;;;;;;27.37;18.17;;;-2.80;99.90;;;;;;5008534;28;20188;-79
2022/12/18 12:33:48;;;;;;;28.63;18.03;;;-2.80;99.90;;;;;;5008616;28;20275;-79
2022/12/18 12:36:19;;;;;;;34.27;21.47;;;-2.70;99.90;;;;;;5008362;28;20207;-79
2022/12/18 12:38:53;;;;;;;54.43;35.20;;;-2.80;99.90;;;;;;5008309;28;20187;-78
2022/12/18 12:44:25;;;;;;;21.80;15.83;;;-2.70;99.90;;;;;;5008376;28;20583;-79
2022/12/18 12:46:54;;;;;;;24.33;16.57;;;-2.80;99.90;;;;;;5007528;28;20191;-78
2022/12/18 12:49:27;;;;;;;34.50;26.63;;;-2.90;99.90;;;;;;5007886;28;20267;-78
2022/12/18 12:52:04;;;;;;;22.43;17.40;;;-2.90;99.90;;;;;;5007252;28;20357;-78
2022/12/18 12:54:32;;;;;;;24.53;16.17;;;-3.00;99.90;;;;;;5006978;28;20603;-78
2022/12/18 12:57:22;;;;;;;27.20;21.00;;;-3.10;99.90;;;;;;5005318;28;20194;-78
2022/12/18 13:00:06;;;;;;;31.33;24.53;;;-3.20;99.90;;;;;;5006901;28;20238;-78